sensor_id;sensor_type;location;lat;lon;timestamp;P1;durP1;ratioP1;P2;durP2;ratioP2
15261;SDS011;7733;51.554;13.590;2023-05-27T00:00:05;10.10;;;4.20;;
15261;SDS011;7733;51.554;13.590;2023-05-27T00:02:33;10.00;;;4.20;;
15261;SDS011;7733;51.554;13.590;2023-05-27T00:05:00;10.50;;;4.80;;
15261;SDS011;7733;51.554;13.590;2023-05-27T00:07:26;11.77;;;4.60;;
15261;SDS011;7733;51.554;13.590;2023-05-27T00:09:53;9.93;;;4.30;;
15261;SDS011;7733;51.554;13.590;2023-05-27T00:12:19;8.50;;;4.27;;
15261;SDS011;7733;51.554;13.590;2023-05-27T00:14:45;8.23;;;3.93;;
15261;SDS011;7733;51.554;13.590;2023-05-27T00:17:11;8.70;;;4.07;;
15261;SDS011;7733;51.554;13.590;2023-05-27T00:19:40;11.70;;;4.47;;
15261;SDS011;7733;51.554;13.590;2023-05-27T00:22:07;12.27;;;4.87;;
15261;SDS011;7733;51.554;13.590;2023-05-27T00:24:36;11.13;;;4.63;;
15261;SDS011;7733;51.554;13.590;2023-05-27T00:27:04;6.93;;;3.67;;
15261;SDS011;7733;51.554;13.590;2023-05-27T00:29:34;8.47;;;4.03;;
15261;SDS011;7733;51.554;13.590;2023-05-27T00:32:01;7.53;;;4.10;;
15261;SDS011;7733;51.554;13.590;2023-05-27T00:34:28;10.67;;;4.40;;
15261;SDS011;7733;51.554;13.590;2023-05-27T00:36:55;9.70;;;4.37;;
15261;SDS011;7733;51.554;13.590;2023-05-27T00:39:22;8.73;;;4.40;;
15261;SDS011;7733;51.554;13.590;2023-05-27T00:41:48;7.40;;;4.27;;
15261;SDS011;7733;51.554;13.590;2023-05-27T00:44:15;7.87;;;4.10;;
15261;SDS011;7733;51.554;13.590;2023-05-27T00:46:42;9.80;;;4.10;;
15261;SDS011;7733;51.554;13.590;2023-05-27T00:49:10;9.43;;;4.40;;
15261;SDS011;7733;51.554;13.590;2023-05-27T00:51:37;12.40;;;4.73;;
15261;SDS011;7733;51.554;13.590;2023-05-27T00:54:03;12.00;;;4.87;;
15261;SDS011;7733;51.554;13.590;2023-05-27T00:56:30;9.03;;;4.43;;
15261;SDS011;7733;51.554;13.590;2023-05-27T00:58:57;8.20;;;4.37;;
15261;SDS011;7733;51.554;13.590;2023-05-27T01:01:23;8.37;;;4.27;;
15261;SDS011;7733;51.554;13.590;2023-05-27T01:03:50;7.17;;;4.43;;
15261;SDS011;7733;51.554;13.590;2023-05-27T01:15:11;8.13;;;4.23;;
15261;SDS011;7733;51.554;13.590;2023-05-27T01:17:37;12.07;;;4.70;;
15261;SDS011;7733;51.554;13.590;2023-05-27T01:20:11;9.53;;;4.60;;
15261;SDS011;7733;51.554;13.590;2023-05-27T01:22:40;10.07;;;4.70;;
15261;SDS011;7733;51.554;13.590;2023-05-27T01:25:08;7.37;;;4.30;;
15261;SDS011;7733;51.554;13.590;2023-05-27T01:27:35;10.00;;;4.50;;
15261;SDS011;7733;51.554;13.590;2023-05-27T01:30:01;7.93;;;4.33;;
15261;SDS011;7733;51.554;13.590;2023-05-27T01:32:37;9.20;;;4.70;;
15261;SDS011;7733;51.554;13.590;2023-05-27T01:38:14;7.67;;;4.23;;
15261;SDS011;7733;51.554;13.590;2023-05-27T01:40:45;10.53;;;5.40;;
15261;SDS011;7733;51.554;13.590;2023-05-27T01:43:13;12.07;;;4.60;;
15261;SDS011;7733;51.554;13.590;2023-05-27T01:45:40;10.00;;;4.50;;
15261;SDS011;7733;51.554;13.590;2023-05-27T01:48:07;10.07;;;4.37;;
15261;SDS011;7733;51.554;13.590;2023-05-27T01:50:34;9.80;;;5.13;;
15261;SDS011;7733;51.554;13.590;2023-05-27T01:53:01;9.77;;;4.70;;
15261;SDS011;7733;51.554;13.590;2023-05-27T01:55:28;10.83;;;5.17;;
15261;SDS011;7733;51.554;13.590;2023-05-27T01:57:55;8.67;;;4.47;;
15261;SDS011;7733;51.554;13.590;2023-05-27T02:00:22;9.37;;;4.57;;
15261;SDS011;7733;51.554;13.590;2023-05-27T02:02:49;11.97;;;4.87;;
15261;SDS011;7733;51.554;13.590;2023-05-27T02:05:15;8.17;;;4.40;;
15261;SDS011;7733;51.554;13.590;2023-05-27T02:07:41;12.27;;;4.90;;
15261;SDS011;7733;51.554;13.590;2023-05-27T02:10:07;8.30;;;4.33;;
15261;SDS011;7733;51.554;13.590;2023-05-27T02:12:33;7.80;;;3.73;;
15261;SDS011;7733;51.554;13.590;2023-05-27T02:14:59;11.30;;;4.30;;
15261;SDS011;7733;51.554;13.590;2023-05-27T02:17:24;7.77;;;4.30;;
15261;SDS011;7733;51.554;13.590;2023-05-27T02:19:52;10.43;;;4.67;;
15261;SDS011;7733;51.554;13.590;2023-05-27T02:22:18;8.97;;;4.00;;
15261;SDS011;7733;51.554;13.590;2023-05-27T02:24:43;8.77;;;4.37;;
15261;SDS011;7733;51.554;13.590;2023-05-27T02:27:09;8.13;;;4.47;;
15261;SDS011;7733;51.554;13.590;2023-05-27T02:29:35;5.47;;;3.97;;
15261;SDS011;7733;51.554;13.590;2023-05-27T02:32:01;8.30;;;4.63;;
15261;SDS011;7733;51.554;13.590;2023-05-27T02:34:27;11.37;;;4.30;;
15261;SDS011;7733;51.554;13.590;2023-05-27T02:36:53;5.60;;;3.73;;
15261;SDS011;7733;51.554;13.590;2023-05-27T02:39:19;7.53;;;4.00;;
15261;SDS011;7733;51.554;13.590;2023-05-27T02:41:45;7.67;;;4.33;;
15261;SDS011;7733;51.554;13.590;2023-05-27T02:44:11;9.43;;;4.33;;
15261;SDS011;7733;51.554;13.590;2023-05-27T02:46:37;10.07;;;4.70;;
15261;SDS011;7733;51.554;13.590;2023-05-27T02:49:02;8.80;;;4.30;;
15261;SDS011;7733;51.554;13.590;2023-05-27T02:51:28;9.27;;;4.57;;
15261;SDS011;7733;51.554;13.590;2023-05-27T02:53:54;8.37;;;4.60;;
15261;SDS011;7733;51.554;13.590;2023-05-27T02:56:20;9.47;;;4.83;;
15261;SDS011;7733;51.554;13.590;2023-05-27T02:58:47;8.43;;;4.83;;
15261;SDS011;7733;51.554;13.590;2023-05-27T03:01:12;9.00;;;4.63;;
15261;SDS011;7733;51.554;13.590;2023-05-27T03:03:38;14.00;;;4.87;;
15261;SDS011;7733;51.554;13.590;2023-05-27T03:06:04;7.80;;;4.07;;
15261;SDS011;7733;51.554;13.590;2023-05-27T03:08:30;9.43;;;4.60;;
15261;SDS011;7733;51.554;13.590;2023-05-27T03:10:56;6.93;;;4.40;;
15261;SDS011;7733;51.554;13.590;2023-05-27T03:13:21;6.87;;;4.10;;
15261;SDS011;7733;51.554;13.590;2023-05-27T03:15:47;7.90;;;4.37;;
15261;SDS011;7733;51.554;13.590;2023-05-27T03:18:13;7.40;;;4.20;;
15261;SDS011;7733;51.554;13.590;2023-05-27T03:20:39;7.97;;;4.63;;
15261;SDS011;7733;51.554;13.590;2023-05-27T03:23:04;11.33;;;4.50;;
15261;SDS011;7733;51.554;13.590;2023-05-27T03:25:30;9.03;;;4.57;;
15261;SDS011;7733;51.554;13.590;2023-05-27T03:27:58;7.00;;;4.17;;
15261;SDS011;7733;51.554;13.590;2023-05-27T03:30:24;6.73;;;4.20;;
15261;SDS011;7733;51.554;13.590;2023-05-27T03:32:49;10.10;;;4.57;;
15261;SDS011;7733;51.554;13.590;2023-05-27T03:35:16;8.37;;;4.57;;
15261;SDS011;7733;51.554;13.590;2023-05-27T03:37:42;6.57;;;4.33;;
15261;SDS011;7733;51.554;13.590;2023-05-27T03:40:08;7.63;;;4.20;;
15261;SDS011;7733;51.554;13.590;2023-05-27T03:42:35;8.90;;;4.73;;
15261;SDS011;7733;51.554;13.590;2023-05-27T03:45:01;9.80;;;4.23;;
15261;SDS011;7733;51.554;13.590;2023-05-27T03:47:27;9.73;;;4.63;;
15261;SDS011;7733;51.554;13.590;2023-05-27T03:49:52;9.50;;;4.67;;
15261;SDS011;7733;51.554;13.590;2023-05-27T03:52:18;9.50;;;5.00;;
15261;SDS011;7733;51.554;13.590;2023-05-27T03:54:44;9.07;;;4.53;;
15261;SDS011;7733;51.554;13.590;2023-05-27T03:57:10;8.90;;;4.23;;
15261;SDS011;7733;51.554;13.590;2023-05-27T03:59:36;9.90;;;4.87;;
15261;SDS011;7733;51.554;13.590;2023-05-27T04:02:02;8.63;;;4.87;;
15261;SDS011;7733;51.554;13.590;2023-05-27T04:04:28;9.13;;;4.40;;
15261;SDS011;7733;51.554;13.590;2023-05-27T04:06:54;11.40;;;4.37;;
15261;SDS011;7733;51.554;13.590;2023-05-27T04:09:20;9.23;;;4.43;;
15261;SDS011;7733;51.554;13.590;2023-05-27T04:11:46;8.87;;;4.60;;
15261;SDS011;7733;51.554;13.590;2023-05-27T04:14:12;7.80;;;4.43;;
15261;SDS011;7733;51.554;13.590;2023-05-27T04:16:38;10.77;;;4.67;;
15261;SDS011;7733;51.554;13.590;2023-05-27T04:19:06;10.53;;;5.23;;
15261;SDS011;7733;51.554;13.590;2023-05-27T04:21:32;10.90;;;4.77;;
15261;SDS011;7733;51.554;13.590;2023-05-27T04:23:58;6.70;;;4.57;;
15261;SDS011;7733;51.554;13.590;2023-05-27T04:26:24;10.53;;;5.07;;
15261;SDS011;7733;51.554;13.590;2023-05-27T04:28:51;9.90;;;4.80;;
15261;SDS011;7733;51.554;13.590;2023-05-27T04:31:17;7.93;;;4.50;;
15261;SDS011;7733;51.554;13.590;2023-05-27T04:33:43;11.27;;;5.20;;
15261;SDS011;7733;51.554;13.590;2023-05-27T04:36:09;7.90;;;4.80;;
15261;SDS011;7733;51.554;13.590;2023-05-27T04:38:36;9.60;;;5.57;;
15261;SDS011;7733;51.554;13.590;2023-05-27T04:41:02;10.47;;;5.60;;
15261;SDS011;7733;51.554;13.590;2023-05-27T04:43:28;11.70;;;5.37;;
15261;SDS011;7733;51.554;13.590;2023-05-27T04:45:56;9.57;;;4.80;;
15261;SDS011;7733;51.554;13.590;2023-05-27T04:48:24;8.87;;;5.23;;
15261;SDS011;7733;51.554;13.590;2023-05-27T04:50:51;10.53;;;4.80;;
15261;SDS011;7733;51.554;13.590;2023-05-27T04:53:20;14.27;;;5.30;;
15261;SDS011;7733;51.554;13.590;2023-05-27T04:55:46;12.83;;;5.37;;
15261;SDS011;7733;51.554;13.590;2023-05-27T04:58:12;9.73;;;5.07;;
15261;SDS011;7733;51.554;13.590;2023-05-27T05:00:38;13.37;;;5.43;;
15261;SDS011;7733;51.554;13.590;2023-05-27T05:03:14;11.27;;;5.20;;
15261;SDS011;7733;51.554;13.590;2023-05-27T05:05:52;9.20;;;5.27;;
15261;SDS011;7733;51.554;13.590;2023-05-27T05:08:18;11.93;;;5.53;;
15261;SDS011;7733;51.554;13.590;2023-05-27T05:10:48;10.23;;;5.23;;
15261;SDS011;7733;51.554;13.590;2023-05-27T05:13:16;12.67;;;5.23;;
15261;SDS011;7733;51.554;13.590;2023-05-27T05:15:42;10.13;;;4.80;;
15261;SDS011;7733;51.554;13.590;2023-05-27T05:18:10;9.93;;;5.03;;
15261;SDS011;7733;51.554;13.590;2023-05-27T05:20:37;10.13;;;4.90;;
15261;SDS011;7733;51.554;13.590;2023-05-27T05:23:03;10.83;;;5.10;;
15261;SDS011;7733;51.554;13.590;2023-05-27T05:25:32;9.03;;;4.80;;
15261;SDS011;7733;51.554;13.590;2023-05-27T05:28:03;11.53;;;5.47;;
15261;SDS011;7733;51.554;13.590;2023-05-27T05:30:30;9.90;;;5.40;;
15261;SDS011;7733;51.554;13.590;2023-05-27T05:32:56;9.80;;;5.17;;
15261;SDS011;7733;51.554;13.590;2023-05-27T05:35:23;11.23;;;5.43;;
15261;SDS011;7733;51.554;13.590;2023-05-27T05:37:49;9.57;;;5.37;;
15261;SDS011;7733;51.554;13.590;2023-05-27T05:40:14;10.97;;;4.83;;
15261;SDS011;7733;51.554;13.590;2023-05-27T05:42:40;10.00;;;5.27;;
15261;SDS011;7733;51.554;13.590;2023-05-27T05:45:06;9.33;;;4.77;;
15261;SDS011;7733;51.554;13.590;2023-05-27T05:47:33;18.70;;;15.40;;
15261;SDS011;7733;51.554;13.590;2023-05-27T05:49:58;13.57;;;5.57;;
15261;SDS011;7733;51.554;13.590;2023-05-27T05:52:24;14.60;;;7.53;;
15261;SDS011;7733;51.554;13.590;2023-05-27T05:54:50;14.40;;;7.63;;
15261;SDS011;7733;51.554;13.590;2023-05-27T05:57:16;10.23;;;4.67;;
15261;SDS011;7733;51.554;13.590;2023-05-27T05:59:42;10.90;;;4.77;;
15261;SDS011;7733;51.554;13.590;2023-05-27T06:02:08;11.60;;;5.50;;
15261;SDS011;7733;51.554;13.590;2023-05-27T06:04:33;9.20;;;4.90;;
15261;SDS011;7733;51.554;13.590;2023-05-27T06:06:59;8.57;;;3.87;;
15261;SDS011;7733;51.554;13.590;2023-05-27T06:09:25;8.80;;;3.97;;
15261;SDS011;7733;51.554;13.590;2023-05-27T06:11:50;10.93;;;4.20;;
15261;SDS011;7733;51.554;13.590;2023-05-27T06:14:17;9.77;;;3.90;;
15261;SDS011;7733;51.554;13.590;2023-05-27T06:16:42;7.40;;;3.80;;
15261;SDS011;7733;51.554;13.590;2023-05-27T06:19:08;6.73;;;3.73;;
15261;SDS011;7733;51.554;13.590;2023-05-27T06:21:34;10.13;;;4.20;;
15261;SDS011;7733;51.554;13.590;2023-05-27T06:24:01;10.33;;;3.97;;
15261;SDS011;7733;51.554;13.590;2023-05-27T06:26:27;8.30;;;3.83;;
15261;SDS011;7733;51.554;13.590;2023-05-27T06:28:52;10.50;;;3.83;;
15261;SDS011;7733;51.554;13.590;2023-05-27T06:31:18;7.27;;;3.73;;
15261;SDS011;7733;51.554;13.590;2023-05-27T06:33:44;9.63;;;4.00;;
15261;SDS011;7733;51.554;13.590;2023-05-27T06:36:10;10.60;;;4.53;;
15261;SDS011;7733;51.554;13.590;2023-05-27T06:38:36;8.03;;;3.83;;
15261;SDS011;7733;51.554;13.590;2023-05-27T06:41:02;7.13;;;3.60;;
15261;SDS011;7733;51.554;13.590;2023-05-27T06:43:28;6.70;;;3.47;;
15261;SDS011;7733;51.554;13.590;2023-05-27T06:45:53;9.07;;;3.60;;
15261;SDS011;7733;51.554;13.590;2023-05-27T06:48:19;11.10;;;3.97;;
15261;SDS011;7733;51.554;13.590;2023-05-27T06:50:45;11.20;;;3.77;;
15261;SDS011;7733;51.554;13.590;2023-05-27T06:53:10;9.50;;;3.83;;
15261;SDS011;7733;51.554;13.590;2023-05-27T06:55:38;9.63;;;3.70;;
15261;SDS011;7733;51.554;13.590;2023-05-27T06:58:04;9.23;;;3.77;;
15261;SDS011;7733;51.554;13.590;2023-05-27T07:00:31;11.63;;;3.67;;
15261;SDS011;7733;51.554;13.590;2023-05-27T07:02:57;10.47;;;4.30;;
15261;SDS011;7733;51.554;13.590;2023-05-27T07:05:22;9.63;;;3.40;;
15261;SDS011;7733;51.554;13.590;2023-05-27T07:07:48;12.00;;;4.27;;
15261;SDS011;7733;51.554;13.590;2023-05-27T07:10:14;7.67;;;3.57;;
15261;SDS011;7733;51.554;13.590;2023-05-27T07:12:40;9.97;;;4.00;;
15261;SDS011;7733;51.554;13.590;2023-05-27T07:15:06;9.43;;;3.90;;
15261;SDS011;7733;51.554;13.590;2023-05-27T07:17:32;10.57;;;4.20;;
15261;SDS011;7733;51.554;13.590;2023-05-27T07:19:58;8.10;;;3.67;;
15261;SDS011;7733;51.554;13.590;2023-05-27T07:22:24;11.43;;;3.60;;
15261;SDS011;7733;51.554;13.590;2023-05-27T07:24:50;7.47;;;3.40;;
15261;SDS011;7733;51.554;13.590;2023-05-27T07:27:16;12.13;;;4.30;;
15261;SDS011;7733;51.554;13.590;2023-05-27T07:29:42;6.10;;;3.37;;
15261;SDS011;7733;51.554;13.590;2023-05-27T07:32:07;8.20;;;3.60;;
15261;SDS011;7733;51.554;13.590;2023-05-27T07:34:33;9.03;;;3.40;;
15261;SDS011;7733;51.554;13.590;2023-05-27T07:36:59;6.73;;;3.27;;
15261;SDS011;7733;51.554;13.590;2023-05-27T07:39:25;9.00;;;3.50;;
15261;SDS011;7733;51.554;13.590;2023-05-27T07:41:50;6.77;;;3.60;;
15261;SDS011;7733;51.554;13.590;2023-05-27T07:44:17;7.80;;;3.50;;
15261;SDS011;7733;51.554;13.590;2023-05-27T07:46:43;9.43;;;3.80;;
15261;SDS011;7733;51.554;13.590;2023-05-27T07:49:09;8.90;;;3.70;;
15261;SDS011;7733;51.554;13.590;2023-05-27T07:51:35;8.37;;;3.40;;
15261;SDS011;7733;51.554;13.590;2023-05-27T07:54:01;8.10;;;3.43;;
15261;SDS011;7733;51.554;13.590;2023-05-27T07:56:27;7.83;;;3.63;;
15261;SDS011;7733;51.554;13.590;2023-05-27T07:58:53;8.47;;;4.03;;
15261;SDS011;7733;51.554;13.590;2023-05-27T08:01:19;8.47;;;3.70;;
15261;SDS011;7733;51.554;13.590;2023-05-27T08:03:44;8.63;;;3.80;;
15261;SDS011;7733;51.554;13.590;2023-05-27T08:06:10;9.67;;;3.90;;
15261;SDS011;7733;51.554;13.590;2023-05-27T08:08:36;8.47;;;3.50;;
15261;SDS011;7733;51.554;13.590;2023-05-27T08:11:01;10.33;;;3.80;;
15261;SDS011;7733;51.554;13.590;2023-05-27T08:13:27;7.17;;;3.30;;
15261;SDS011;7733;51.554;13.590;2023-05-27T08:15:53;10.63;;;3.77;;
15261;SDS011;7733;51.554;13.590;2023-05-27T08:18:18;6.77;;;3.27;;
15261;SDS011;7733;51.554;13.590;2023-05-27T08:20:44;7.23;;;3.30;;
15261;SDS011;7733;51.554;13.590;2023-05-27T08:23:10;6.90;;;2.80;;
15261;SDS011;7733;51.554;13.590;2023-05-27T08:25:36;8.60;;;3.20;;
15261;SDS011;7733;51.554;13.590;2023-05-27T08:28:02;5.40;;;2.90;;
15261;SDS011;7733;51.554;13.590;2023-05-27T08:30:28;5.83;;;2.93;;
15261;SDS011;7733;51.554;13.590;2023-05-27T08:32:55;6.17;;;3.20;;
15261;SDS011;7733;51.554;13.590;2023-05-27T08:35:21;3.60;;;2.60;;
15261;SDS011;7733;51.554;13.590;2023-05-27T08:37:47;5.40;;;3.10;;
15261;SDS011;7733;51.554;13.590;2023-05-27T08:40:14;7.17;;;3.10;;
15261;SDS011;7733;51.554;13.590;2023-05-27T08:42:42;4.47;;;2.53;;
15261;SDS011;7733;51.554;13.590;2023-05-27T08:45:08;6.20;;;2.93;;
15261;SDS011;7733;51.554;13.590;2023-05-27T08:47:35;6.07;;;3.00;;
15261;SDS011;7733;51.554;13.590;2023-05-27T08:50:03;2.83;;;2.53;;
15261;SDS011;7733;51.554;13.590;2023-05-27T08:52:30;5.20;;;2.70;;
15261;SDS011;7733;51.554;13.590;2023-05-27T08:54:56;5.77;;;2.67;;
15261;SDS011;7733;51.554;13.590;2023-05-27T08:57:23;7.03;;;3.13;;
15261;SDS011;7733;51.554;13.590;2023-05-27T08:59:55;6.83;;;3.07;;
15261;SDS011;7733;51.554;13.590;2023-05-27T09:02:21;5.37;;;2.60;;
15261;SDS011;7733;51.554;13.590;2023-05-27T09:04:48;6.90;;;2.90;;
15261;SDS011;7733;51.554;13.590;2023-05-27T09:07:15;5.97;;;3.20;;
15261;SDS011;7733;51.554;13.590;2023-05-27T09:09:53;5.77;;;3.00;;
15261;SDS011;7733;51.554;13.590;2023-05-27T09:12:23;5.80;;;2.60;;
15261;SDS011;7733;51.554;13.590;2023-05-27T09:14:51;7.20;;;2.83;;
15261;SDS011;7733;51.554;13.590;2023-05-27T09:17:19;5.13;;;2.67;;
15261;SDS011;7733;51.554;13.590;2023-05-27T09:19:49;10.03;;;2.90;;
15261;SDS011;7733;51.554;13.590;2023-05-27T09:22:28;2.57;;;2.37;;
15261;SDS011;7733;51.554;13.590;2023-05-27T09:24:55;5.53;;;2.87;;
15261;SDS011;7733;51.554;13.590;2023-05-27T09:27:28;3.73;;;2.50;;
15261;SDS011;7733;51.554;13.590;2023-05-27T09:29:56;6.77;;;2.70;;
15261;SDS011;7733;51.554;13.590;2023-05-27T09:32:32;5.53;;;2.90;;
15261;SDS011;7733;51.554;13.590;2023-05-27T09:34:59;5.17;;;2.90;;
15261;SDS011;7733;51.554;13.590;2023-05-27T09:37:27;4.87;;;3.17;;
15261;SDS011;7733;51.554;13.590;2023-05-27T09:39:59;6.17;;;2.93;;
15261;SDS011;7733;51.554;13.590;2023-05-27T09:42:44;3.87;;;2.40;;
15261;SDS011;7733;51.554;13.590;2023-05-27T09:47:42;3.53;;;2.37;;
15261;SDS011;7733;51.554;13.590;2023-05-27T09:50:13;5.33;;;2.77;;
15261;SDS011;7733;51.554;13.590;2023-05-27T09:52:39;6.53;;;2.77;;
15261;SDS011;7733;51.554;13.590;2023-05-27T09:55:06;4.40;;;2.60;;
15261;SDS011;7733;51.554;13.590;2023-05-27T09:57:34;7.67;;;2.50;;
15261;SDS011;7733;51.554;13.590;2023-05-27T10:00:01;3.33;;;2.43;;
15261;SDS011;7733;51.554;13.590;2023-05-27T10:02:48;6.27;;;2.87;;
15261;SDS011;7733;51.554;13.590;2023-05-27T10:05:14;3.30;;;2.53;;
15261;SDS011;7733;51.554;13.590;2023-05-27T10:07:43;5.97;;;2.93;;
15261;SDS011;7733;51.554;13.590;2023-05-27T10:10:11;2.70;;;2.37;;
15261;SDS011;7733;51.554;13.590;2023-05-27T10:12:43;5.10;;;2.50;;
15261;SDS011;7733;51.554;13.590;2023-05-27T10:15:21;2.70;;;2.50;;
15261;SDS011;7733;51.554;13.590;2023-05-27T10:17:59;3.20;;;2.30;;
15261;SDS011;7733;51.554;13.590;2023-05-27T10:20:38;4.47;;;2.50;;
15261;SDS011;7733;51.554;13.590;2023-05-27T10:23:14;4.80;;;2.33;;
15261;SDS011;7733;51.554;13.590;2023-05-27T10:26:30;2.80;;;2.40;;
15261;SDS011;7733;51.554;13.590;2023-05-27T10:28:42;3.20;;;2.37;;
15261;SDS011;7733;51.554;13.590;2023-05-27T10:33:44;3.83;;;2.30;;
15261;SDS011;7733;51.554;13.590;2023-05-27T10:36:16;4.33;;;2.50;;
15261;SDS011;7733;51.554;13.590;2023-05-27T10:38:56;3.40;;;2.40;;
15261;SDS011;7733;51.554;13.590;2023-05-27T10:41:48;2.50;;;2.17;;
15261;SDS011;7733;51.554;13.590;2023-05-27T10:44:34;3.07;;;2.37;;
15261;SDS011;7733;51.554;13.590;2023-05-27T10:49:36;4.07;;;2.40;;
15261;SDS011;7733;51.554;13.590;2023-05-27T10:52:08;3.17;;;2.60;;
15261;SDS011;7733;51.554;13.590;2023-05-27T10:54:37;2.47;;;2.27;;
15261;SDS011;7733;51.554;13.590;2023-05-27T10:57:04;3.37;;;2.47;;
15261;SDS011;7733;51.554;13.590;2023-05-27T10:59:47;4.23;;;2.40;;
15261;SDS011;7733;51.554;13.590;2023-05-27T11:02:18;2.67;;;2.47;;
15261;SDS011;7733;51.554;13.590;2023-05-27T11:04:46;2.77;;;2.37;;
15261;SDS011;7733;51.554;13.590;2023-05-27T11:07:20;2.40;;;2.23;;
15261;SDS011;7733;51.554;13.590;2023-05-27T11:09:48;3.07;;;2.77;;
15261;SDS011;7733;51.554;13.590;2023-05-27T11:12:17;3.90;;;2.03;;
15261;SDS011;7733;51.554;13.590;2023-05-27T11:14:54;2.67;;;2.33;;
15261;SDS011;7733;51.554;13.590;2023-05-27T11:17:21;2.47;;;2.27;;
15261;SDS011;7733;51.554;13.590;2023-05-27T11:19:48;4.40;;;2.30;;
15261;SDS011;7733;51.554;13.590;2023-05-27T11:22:15;2.57;;;2.00;;
15261;SDS011;7733;51.554;13.590;2023-05-27T11:24:42;9.50;;;2.90;;
15261;SDS011;7733;51.554;13.590;2023-05-27T11:27:20;3.63;;;2.30;;
15261;SDS011;7733;51.554;13.590;2023-05-27T11:29:49;2.87;;;2.27;;
15261;SDS011;7733;51.554;13.590;2023-05-27T11:32:17;3.00;;;2.10;;
15261;SDS011;7733;51.554;13.590;2023-05-27T11:34:44;2.60;;;2.40;;
15261;SDS011;7733;51.554;13.590;2023-05-27T11:37:12;3.43;;;2.20;;
15261;SDS011;7733;51.554;13.590;2023-05-27T11:39:48;2.93;;;2.00;;
15261;SDS011;7733;51.554;13.590;2023-05-27T11:42:24;2.87;;;2.03;;
15261;SDS011;7733;51.554;13.590;2023-05-27T11:44:50;2.37;;;2.17;;
15261;SDS011;7733;51.554;13.590;2023-05-27T11:47:18;2.50;;;2.00;;
15261;SDS011;7733;51.554;13.590;2023-05-27T11:49:45;2.10;;;1.90;;
15261;SDS011;7733;51.554;13.590;2023-05-27T11:52:13;3.30;;;2.57;;
15261;SDS011;7733;51.554;13.590;2023-05-27T11:54:39;2.33;;;2.13;;
15261;SDS011;7733;51.554;13.590;2023-05-27T11:57:05;2.70;;;2.50;;
15261;SDS011;7733;51.554;13.590;2023-05-27T11:59:32;2.30;;;2.03;;
15261;SDS011;7733;51.554;13.590;2023-05-27T12:02:03;2.83;;;2.10;;
15261;SDS011;7733;51.554;13.590;2023-05-27T12:04:29;2.87;;;2.30;;
15261;SDS011;7733;51.554;13.590;2023-05-27T12:06:56;3.30;;;2.53;;
15261;SDS011;7733;51.554;13.590;2023-05-27T12:09:23;2.20;;;1.87;;
15261;SDS011;7733;51.554;13.590;2023-05-27T12:11:49;3.67;;;2.10;;
15261;SDS011;7733;51.554;13.590;2023-05-27T12:14:15;2.90;;;2.07;;
15261;SDS011;7733;51.554;13.590;2023-05-27T12:16:41;2.43;;;2.27;;
15261;SDS011;7733;51.554;13.590;2023-05-27T12:19:07;2.43;;;2.23;;
15261;SDS011;7733;51.554;13.590;2023-05-27T12:21:34;2.27;;;2.07;;
15261;SDS011;7733;51.554;13.590;2023-05-27T12:24:02;3.27;;;2.27;;
15261;SDS011;7733;51.554;13.590;2023-05-27T12:26:28;4.17;;;2.27;;
15261;SDS011;7733;51.554;13.590;2023-05-27T12:28:54;2.23;;;2.10;;
15261;SDS011;7733;51.554;13.590;2023-05-27T12:31:21;2.87;;;2.33;;
15261;SDS011;7733;51.554;13.590;2023-05-27T12:33:48;2.63;;;2.10;;
15261;SDS011;7733;51.554;13.590;2023-05-27T12:36:14;2.20;;;2.00;;
15261;SDS011;7733;51.554;13.590;2023-05-27T12:38:40;2.13;;;1.93;;
15261;SDS011;7733;51.554;13.590;2023-05-27T12:41:06;3.07;;;1.93;;
15261;SDS011;7733;51.554;13.590;2023-05-27T12:43:32;2.17;;;1.90;;
15261;SDS011;7733;51.554;13.590;2023-05-27T12:45:58;2.23;;;2.10;;
15261;SDS011;7733;51.554;13.590;2023-05-27T12:48:24;2.40;;;2.20;;
15261;SDS011;7733;51.554;13.590;2023-05-27T12:50:50;4.57;;;2.30;;
15261;SDS011;7733;51.554;13.590;2023-05-27T12:53:16;3.90;;;2.33;;
15261;SDS011;7733;51.554;13.590;2023-05-27T12:55:42;2.53;;;2.33;;
15261;SDS011;7733;51.554;13.590;2023-05-27T12:58:11;2.80;;;2.03;;
15261;SDS011;7733;51.554;13.590;2023-05-27T13:00:37;2.80;;;2.10;;
15261;SDS011;7733;51.554;13.590;2023-05-27T13:03:03;2.33;;;2.13;;
15261;SDS011;7733;51.554;13.590;2023-05-27T13:05:29;2.90;;;1.97;;
15261;SDS011;7733;51.554;13.590;2023-05-27T13:08:01;3.03;;;2.20;;
15261;SDS011;7733;51.554;13.590;2023-05-27T13:10:32;2.10;;;2.00;;
15261;SDS011;7733;51.554;13.590;2023-05-27T13:12:59;4.13;;;2.13;;
15261;SDS011;7733;51.554;13.590;2023-05-27T13:15:26;2.80;;;2.37;;
15261;SDS011;7733;51.554;13.590;2023-05-27T13:17:52;2.20;;;2.10;;
15261;SDS011;7733;51.554;13.590;2023-05-27T13:20:19;2.30;;;2.10;;
15261;SDS011;7733;51.554;13.590;2023-05-27T13:22:47;2.50;;;2.30;;
15261;SDS011;7733;51.554;13.590;2023-05-27T13:25:13;14.63;;;3.20;;
15261;SDS011;7733;51.554;13.590;2023-05-27T13:27:40;4.53;;;2.40;;
15261;SDS011;7733;51.554;13.590;2023-05-27T13:30:09;2.17;;;1.97;;
15261;SDS011;7733;51.554;13.590;2023-05-27T13:32:38;7.90;;;2.80;;
15261;SDS011;7733;51.554;13.590;2023-05-27T13:35:05;3.13;;;2.27;;
15261;SDS011;7733;51.554;13.590;2023-05-27T13:37:31;2.30;;;2.10;;
15261;SDS011;7733;51.554;13.590;2023-05-27T13:39:57;2.57;;;2.37;;
15261;SDS011;7733;51.554;13.590;2023-05-27T13:42:23;3.40;;;2.40;;
15261;SDS011;7733;51.554;13.590;2023-05-27T13:44:49;2.67;;;2.40;;
15261;SDS011;7733;51.554;13.590;2023-05-27T13:47:15;2.60;;;2.40;;
15261;SDS011;7733;51.554;13.590;2023-05-27T13:49:40;2.80;;;2.40;;
15261;SDS011;7733;51.554;13.590;2023-05-27T13:52:06;2.33;;;2.23;;
15261;SDS011;7733;51.554;13.590;2023-05-27T13:54:32;2.67;;;2.43;;
15261;SDS011;7733;51.554;13.590;2023-05-27T13:56:58;2.33;;;2.23;;
15261;SDS011;7733;51.554;13.590;2023-05-27T13:59:23;2.93;;;2.40;;
15261;SDS011;7733;51.554;13.590;2023-05-27T14:01:49;2.10;;;2.00;;
15261;SDS011;7733;51.554;13.590;2023-05-27T14:04:15;2.40;;;1.97;;
15261;SDS011;7733;51.554;13.590;2023-05-27T14:06:41;2.27;;;2.07;;
15261;SDS011;7733;51.554;13.590;2023-05-27T14:09:07;1.93;;;1.80;;
15261;SDS011;7733;51.554;13.590;2023-05-27T14:11:33;1.90;;;1.87;;
15261;SDS011;7733;51.554;13.590;2023-05-27T14:13:58;2.10;;;2.00;;
15261;SDS011;7733;51.554;13.590;2023-05-27T14:16:24;3.10;;;2.37;;
15261;SDS011;7733;51.554;13.590;2023-05-27T14:18:50;2.40;;;2.20;;
15261;SDS011;7733;51.554;13.590;2023-05-27T14:21:16;3.27;;;2.40;;
15261;SDS011;7733;51.554;13.590;2023-05-27T14:23:42;3.47;;;2.27;;
15261;SDS011;7733;51.554;13.590;2023-05-27T14:26:09;2.57;;;2.13;;
15261;SDS011;7733;51.554;13.590;2023-05-27T14:28:35;2.70;;;2.20;;
15261;SDS011;7733;51.554;13.590;2023-05-27T14:31:01;2.60;;;2.40;;
15261;SDS011;7733;51.554;13.590;2023-05-27T14:33:26;3.07;;;2.50;;
15261;SDS011;7733;51.554;13.590;2023-05-27T14:35:52;4.13;;;3.73;;
15261;SDS011;7733;51.554;13.590;2023-05-27T14:38:18;3.67;;;2.43;;
15261;SDS011;7733;51.554;13.590;2023-05-27T14:40:45;2.57;;;2.20;;
15261;SDS011;7733;51.554;13.590;2023-05-27T14:43:11;2.97;;;2.27;;
15261;SDS011;7733;51.554;13.590;2023-05-27T14:45:37;2.27;;;2.17;;
15261;SDS011;7733;51.554;13.590;2023-05-27T14:48:05;3.33;;;2.30;;
15261;SDS011;7733;51.554;13.590;2023-05-27T14:50:32;2.77;;;2.00;;
15261;SDS011;7733;51.554;13.590;2023-05-27T14:52:58;2.60;;;2.00;;
15261;SDS011;7733;51.554;13.590;2023-05-27T14:55:24;2.20;;;2.10;;
15261;SDS011;7733;51.554;13.590;2023-05-27T14:57:51;4.97;;;2.20;;
15261;SDS011;7733;51.554;13.590;2023-05-27T15:00:17;2.40;;;2.27;;
15261;SDS011;7733;51.554;13.590;2023-05-27T15:02:43;2.00;;;1.90;;
15261;SDS011;7733;51.554;13.590;2023-05-27T15:05:09;2.93;;;2.13;;